sensor_id;sensor_type;location;lat;lon;timestamp;P1;P2;P0
61592;PMS5003;47485;51.378;-1.342;2023-03-01T00:01:40;3;3;
61592;PMS5003;47485;51.378;-1.342;2023-03-01T00:04:07;6;4;
61592;PMS5003;47485;51.378;-1.342;2023-03-01T00:06:34;5;4;
61592;PMS5003;47485;51.378;-1.342;2023-03-01T00:09:01;3;3;
61592;PMS5003;47485;51.378;-1.342;2023-03-01T00:11:28;3;3;
61592;PMS5003;47485;51.378;-1.342;2023-03-01T00:13:57;6;4;
61592;PMS5003;47485;51.378;-1.342;2023-03-01T00:16:26;6;6;
61592;PMS5003;47485;51.378;-1.342;2023-03-01T00:18:54;5;5;
61592;PMS5003;47485;51.378;-1.342;2023-03-01T00:21:22;5;5;
61592;PMS5003;47485;51.378;-1.342;2023-03-01T00:23:50;6;6;
61592;PMS5003;47485;51.378;-1.342;2023-03-01T00:26:18;6;5;
61592;PMS5003;47485;51.378;-1.342;2023-03-01T00:28:46;5;5;
61592;PMS5003;47485;51.378;-1.342;2023-03-01T00:31:14;7;7;
61592;PMS5003;47485;51.378;-1.342;2023-03-01T00:33:42;8;6;
61592;PMS5003;47485;51.378;-1.342;2023-03-01T00:36:10;6;6;
61592;PMS5003;47485;51.378;-1.342;2023-03-01T00:38:39;7;7;
61592;PMS5003;47485;51.378;-1.342;2023-03-01T00:41:08;6;6;
61592;PMS5003;47485;51.378;-1.342;2023-03-01T00:43:37;7;7;
61592;PMS5003;47485;51.378;-1.342;2023-03-01T00:46:04;9;9;
61592;PMS5003;47485;51.378;-1.342;2023-03-01T00:48:33;9;8;
61592;PMS5003;47485;51.378;-1.342;2023-03-01T00:51:05;7;7;
61592;PMS5003;47485;51.378;-1.342;2023-03-01T00:53:33;8;8;
61592;PMS5003;47485;51.378;-1.342;2023-03-01T00:56:01;8;6;
61592;PMS5003;47485;51.378;-1.342;2023-03-01T00:58:28;11;9;
61592;PMS5003;47485;51.378;-1.342;2023-03-01T01:00:55;5;5;
61592;PMS5003;47485;51.378;-1.342;2023-03-01T01:03:22;8;8;
61592;PMS5003;47485;51.378;-1.342;2023-03-01T01:05:50;9;8;
61592;PMS5003;47485;51.378;-1.342;2023-03-01T01:08:18;6;5;
61592;PMS5003;47485;51.378;-1.342;2023-03-01T01:10:44;6;6;
61592;PMS5003;47485;51.378;-1.342;2023-03-01T01:13:16;7;6;
61592;PMS5003;47485;51.378;-1.342;2023-03-01T01:15:44;8;8;
61592;PMS5003;47485;51.378;-1.342;2023-03-01T01:18:11;6;6;
61592;PMS5003;47485;51.378;-1.342;2023-03-01T01:20:38;6;6;
61592;PMS5003;47485;51.378;-1.342;2023-03-01T01:23:05;4;4;
61592;PMS5003;47485;51.378;-1.342;2023-03-01T01:25:33;8;7;
61592;PMS5003;47485;51.378;-1.342;2023-03-01T01:28:01;4;4;
61592;PMS5003;47485;51.378;-1.342;2023-03-01T01:30:28;7;7;
61592;PMS5003;47485;51.378;-1.342;2023-03-01T01:32:55;3;3;
61592;PMS5003;47485;51.378;-1.342;2023-03-01T01:35:22;4;3;
61592;PMS5003;47485;51.378;-1.342;2023-03-01T01:37:49;5;5;
61592;PMS5003;47485;51.378;-1.342;2023-03-01T01:40:17;3;3;
61592;PMS5003;47485;51.378;-1.342;2023-03-01T01:42:43;7;7;
61592;PMS5003;47485;51.378;-1.342;2023-03-01T01:45:43;4;4;
61592;PMS5003;47485;51.378;-1.342;2023-03-01T01:48:10;4;3;
61592;PMS5003;47485;51.378;-1.342;2023-03-01T01:50:40;3;3;
61592;PMS5003;47485;51.378;-1.342;2023-03-01T01:53:09;4;4;
61592;PMS5003;47485;51.378;-1.342;2023-03-01T01:55:39;3;3;
61592;PMS5003;47485;51.378;-1.342;2023-03-01T01:58:09;4;4;
61592;PMS5003;47485;51.378;-1.342;2023-03-01T02:00:40;2;2;
61592;PMS5003;47485;51.378;-1.342;2023-03-01T02:03:08;2;2;
61592;PMS5003;47485;51.378;-1.342;2023-03-01T02:05:41;2;2;
61592;PMS5003;47485;51.378;-1.342;2023-03-01T02:08:13;3;3;
61592;PMS5003;47485;51.378;-1.342;2023-03-01T02:10:42;1;1;
61592;PMS5003;47485;51.378;-1.342;2023-03-01T02:13:11;4;4;
61592;PMS5003;47485;51.378;-1.342;2023-03-01T02:15:39;4;3;
61592;PMS5003;47485;51.378;-1.342;2023-03-01T02:18:07;2;2;
61592;PMS5003;47485;51.378;-1.342;2023-03-01T02:20:38;3;3;
61592;PMS5003;47485;51.378;-1.342;2023-03-01T02:23:15;3;2;
61592;PMS5003;47485;51.378;-1.342;2023-03-01T02:25:45;4;3;
61592;PMS5003;47485;51.378;-1.342;2023-03-01T02:28:25;1;1;
61592;PMS5003;47485;51.378;-1.342;2023-03-01T02:30:55;4;4;
61592;PMS5003;47485;51.378;-1.342;2023-03-01T02:33:22;2;2;
61592;PMS5003;47485;51.378;-1.342;2023-03-01T02:35:49;3;2;
61592;PMS5003;47485;51.378;-1.342;2023-03-01T02:38:16;4;4;
61592;PMS5003;47485;51.378;-1.342;2023-03-01T02:40:44;3;2;
61592;PMS5003;47485;51.378;-1.342;2023-03-01T02:43:12;2;2;
61592;PMS5003;47485;51.378;-1.342;2023-03-01T02:45:43;4;2;
61592;PMS5003;47485;51.378;-1.342;2023-03-01T02:48:14;3;3;
61592;PMS5003;47485;51.378;-1.342;2023-03-01T02:50:45;8;4;
61592;PMS5003;47485;51.378;-1.342;2023-03-01T02:53:22;4;4;
61592;PMS5003;47485;51.378;-1.342;2023-03-01T02:55:54;6;4;
61592;PMS5003;47485;51.378;-1.342;2023-03-01T02:58:21;5;5;
61592;PMS5003;47485;51.378;-1.342;2023-03-01T03:00:48;4;4;
61592;PMS5003;47485;51.378;-1.342;2023-03-01T03:03:15;4;4;
61592;PMS5003;47485;51.378;-1.342;2023-03-01T03:05:45;9;7;
61592;PMS5003;47485;51.378;-1.342;2023-03-01T03:08:12;7;6;
61592;PMS5003;47485;51.378;-1.342;2023-03-01T03:10:40;7;7;
61592;PMS5003;47485;51.378;-1.342;2023-03-01T03:13:09;7;6;
61592;PMS5003;47485;51.378;-1.342;2023-03-01T03:15:38;7;6;
61592;PMS5003;47485;51.378;-1.342;2023-03-01T03:18:06;4;4;
61592;PMS5003;47485;51.378;-1.342;2023-03-01T03:20:35;4;4;
61592;PMS5003;47485;51.378;-1.342;2023-03-01T03:23:03;3;3;
61592;PMS5003;47485;51.378;-1.342;2023-03-01T03:25:30;4;4;
61592;PMS5003;47485;51.378;-1.342;2023-03-01T03:27:56;6;5;
61592;PMS5003;47485;51.378;-1.342;2023-03-01T03:30:25;6;5;
61592;PMS5003;47485;51.378;-1.342;2023-03-01T03:32:53;4;4;
61592;PMS5003;47485;51.378;-1.342;2023-03-01T03:35:22;2;2;
61592;PMS5003;47485;51.378;-1.342;2023-03-01T03:37:51;6;6;
61592;PMS5003;47485;51.378;-1.342;2023-03-01T03:40:18;6;5;
61592;PMS5003;47485;51.378;-1.342;2023-03-01T03:42:45;4;4;
61592;PMS5003;47485;51.378;-1.342;2023-03-01T03:45:12;6;4;
61592;PMS5003;47485;51.378;-1.342;2023-03-01T03:47:39;5;5;
61592;PMS5003;47485;51.378;-1.342;2023-03-01T03:50:06;4;3;
61592;PMS5003;47485;51.378;-1.342;2023-03-01T03:52:34;4;4;
61592;PMS5003;47485;51.378;-1.342;2023-03-01T03:55:02;5;5;
61592;PMS5003;47485;51.378;-1.342;2023-03-01T03:57:30;4;4;
61592;PMS5003;47485;51.378;-1.342;2023-03-01T03:59:57;2;2;
61592;PMS5003;47485;51.378;-1.342;2023-03-01T04:02:24;6;5;
61592;PMS5003;47485;51.378;-1.342;2023-03-01T04:04:51;3;2;
61592;PMS5003;47485;51.378;-1.342;2023-03-01T04:07:19;6;4;
61592;PMS5003;47485;51.378;-1.342;2023-03-01T04:09:46;5;5;
61592;PMS5003;47485;51.378;-1.342;2023-03-01T04:12:17;7;5;
61592;PMS5003;47485;51.378;-1.342;2023-03-01T04:14:44;4;3;
61592;PMS5003;47485;51.378;-1.342;2023-03-01T04:17:12;4;4;
61592;PMS5003;47485;51.378;-1.342;2023-03-01T04:19:38;9;4;
61592;PMS5003;47485;51.378;-1.342;2023-03-01T04:22:05;5;5;
61592;PMS5003;47485;51.378;-1.342;2023-03-01T04:24:32;5;5;
61592;PMS5003;47485;51.378;-1.342;2023-03-01T04:26:59;4;4;
61592;PMS5003;47485;51.378;-1.342;2023-03-01T04:29:26;4;4;
61592;PMS5003;47485;51.378;-1.342;2023-03-01T04:31:53;3;3;
61592;PMS5003;47485;51.378;-1.342;2023-03-01T04:34:19;4;2;
61592;PMS5003;47485;51.378;-1.342;2023-03-01T04:36:46;4;4;
61592;PMS5003;47485;51.378;-1.342;2023-03-01T04:39:13;4;3;
61592;PMS5003;47485;51.378;-1.342;2023-03-01T04:41:40;5;3;
61592;PMS5003;47485;51.378;-1.342;2023-03-01T04:44:07;4;3;
61592;PMS5003;47485;51.378;-1.342;2023-03-01T04:46:34;4;4;
61592;PMS5003;47485;51.378;-1.342;2023-03-01T04:49:02;5;5;
61592;PMS5003;47485;51.378;-1.342;2023-03-01T04:51:29;6;5;
61592;PMS5003;47485;51.378;-1.342;2023-03-01T04:53:56;4;4;
61592;PMS5003;47485;51.378;-1.342;2023-03-01T04:56:23;3;3;
61592;PMS5003;47485;51.378;-1.342;2023-03-01T04:58:52;5;4;
61592;PMS5003;47485;51.378;-1.342;2023-03-01T05:01:20;4;2;
61592;PMS5003;47485;51.378;-1.342;2023-03-01T05:03:48;4;3;
61592;PMS5003;47485;51.378;-1.342;2023-03-01T05:06:17;3;3;
61592;PMS5003;47485;51.378;-1.342;2023-03-01T05:08:45;2;2;
61592;PMS5003;47485;51.378;-1.342;2023-03-01T05:11:12;4;4;
61592;PMS5003;47485;51.378;-1.342;2023-03-01T05:13:39;6;4;
61592;PMS5003;47485;51.378;-1.342;2023-03-01T05:16:07;3;2;
61592;PMS5003;47485;51.378;-1.342;2023-03-01T05:18:35;4;2;
61592;PMS5003;47485;51.378;-1.342;2023-03-01T05:21:03;4;4;
61592;PMS5003;47485;51.378;-1.342;2023-03-01T05:23:31;4;3;
61592;PMS5003;47485;51.378;-1.342;2023-03-01T05:25:59;5;3;
61592;PMS5003;47485;51.378;-1.342;2023-03-01T05:28:26;2;2;
61592;PMS5003;47485;51.378;-1.342;2023-03-01T05:30:54;2;2;
61592;PMS5003;47485;51.378;-1.342;2023-03-01T05:33:22;3;3;
61592;PMS5003;47485;51.378;-1.342;2023-03-01T05:35:50;4;1;
61592;PMS5003;47485;51.378;-1.342;2023-03-01T05:38:18;1;1;
61592;PMS5003;47485;51.378;-1.342;2023-03-01T05:40:47;2;2;
61592;PMS5003;47485;51.378;-1.342;2023-03-01T05:43:16;2;2;
61592;PMS5003;47485;51.378;-1.342;2023-03-01T05:45:43;4;3;
61592;PMS5003;47485;51.378;-1.342;2023-03-01T05:48:11;1;1;
61592;PMS5003;47485;51.378;-1.342;2023-03-01T05:50:39;0;0;
61592;PMS5003;47485;51.378;-1.342;2023-03-01T05:53:09;3;3;
61592;PMS5003;47485;51.378;-1.342;2023-03-01T05:55:38;0;0;
61592;PMS5003;47485;51.378;-1.342;2023-03-01T05:58:07;1;1;
61592;PMS5003;47485;51.378;-1.342;2023-03-01T06:00:37;1;0;
61592;PMS5003;47485;51.378;-1.342;2023-03-01T06:03:05;1;1;
61592;PMS5003;47485;51.378;-1.342;2023-03-01T06:05:32;1;1;
61592;PMS5003;47485;51.378;-1.342;2023-03-01T06:07:59;3;1;
61592;PMS5003;47485;51.378;-1.342;2023-03-01T06:10:27;0;0;
61592;PMS5003;47485;51.378;-1.342;2023-03-01T06:12:54;1;1;
61592;PMS5003;47485;51.378;-1.342;2023-03-01T06:15:22;3;1;
61592;PMS5003;47485;51.378;-1.342;2023-03-01T06:17:50;1;1;
61592;PMS5003;47485;51.378;-1.342;2023-03-01T06:20:18;2;1;
61592;PMS5003;47485;51.378;-1.342;2023-03-01T06:22:48;1;1;
61592;PMS5003;47485;51.378;-1.342;2023-03-01T06:25:16;2;1;
61592;PMS5003;47485;51.378;-1.342;2023-03-01T06:27:46;2;1;
61592;PMS5003;47485;51.378;-1.342;2023-03-01T06:30:13;2;2;
61592;PMS5003;47485;51.378;-1.342;2023-03-01T06:32:42;1;1;
61592;PMS5003;47485;51.378;-1.342;2023-03-01T06:35:09;2;2;
61592;PMS5003;47485;51.378;-1.342;2023-03-01T06:37:36;3;2;
61592;PMS5003;47485;51.378;-1.342;2023-03-01T06:40:03;5;2;
61592;PMS5003;47485;51.378;-1.342;2023-03-01T06:42:31;3;2;
61592;PMS5003;47485;51.378;-1.342;2023-03-01T06:44:58;2;1;
61592;PMS5003;47485;51.378;-1.342;2023-03-01T06:47:25;2;2;
61592;PMS5003;47485;51.378;-1.342;2023-03-01T06:49:52;4;3;
61592;PMS5003;47485;51.378;-1.342;2023-03-01T06:52:19;5;3;
61592;PMS5003;47485;51.378;-1.342;2023-03-01T06:54:46;5;3;
61592;PMS5003;47485;51.378;-1.342;2023-03-01T06:57:13;5;4;
61592;PMS5003;47485;51.378;-1.342;2023-03-01T06:59:40;3;3;
61592;PMS5003;47485;51.378;-1.342;2023-03-01T07:02:08;4;4;
61592;PMS5003;47485;51.378;-1.342;2023-03-01T07:04:36;5;5;
61592;PMS5003;47485;51.378;-1.342;2023-03-01T07:07:03;6;5;
61592;PMS5003;47485;51.378;-1.342;2023-03-01T07:09:30;7;6;
61592;PMS5003;47485;51.378;-1.342;2023-03-01T07:11:57;4;4;
61592;PMS5003;47485;51.378;-1.342;2023-03-01T07:14:23;6;5;
61592;PMS5003;47485;51.378;-1.342;2023-03-01T07:16:51;6;5;
61592;PMS5003;47485;51.378;-1.342;2023-03-01T07:19:18;8;6;
61592;PMS5003;47485;51.378;-1.342;2023-03-01T07:21:44;7;7;
61592;PMS5003;47485;51.378;-1.342;2023-03-01T07:24:11;5;4;
61592;PMS5003;47485;51.378;-1.342;2023-03-01T07:26:38;4;4;
61592;PMS5003;47485;51.378;-1.342;2023-03-01T07:29:06;4;4;
61592;PMS5003;47485;51.378;-1.342;2023-03-01T07:31:35;7;7;
61592;PMS5003;47485;51.378;-1.342;2023-03-01T07:34:02;9;6;
61592;PMS5003;47485;51.378;-1.342;2023-03-01T07:36:29;7;6;
61592;PMS5003;47485;51.378;-1.342;2023-03-01T07:38:56;6;6;
61592;PMS5003;47485;51.378;-1.342;2023-03-01T07:41:24;4;4;
61592;PMS5003;47485;51.378;-1.342;2023-03-01T07:43:52;4;4;
61592;PMS5003;47485;51.378;-1.342;2023-03-01T07:46:19;9;6;
61592;PMS5003;47485;51.378;-1.342;2023-03-01T07:48:46;11;8;
61592;PMS5003;47485;51.378;-1.342;2023-03-01T07:51:13;11;6;
61592;PMS5003;47485;51.378;-1.342;2023-03-01T07:53:39;9;8;
61592;PMS5003;47485;51.378;-1.342;2023-03-01T07:56:07;8;6;
61592;PMS5003;47485;51.378;-1.342;2023-03-01T07:58:36;6;4;
61592;PMS5003;47485;51.378;-1.342;2023-03-01T08:01:05;5;5;
61592;PMS5003;47485;51.378;-1.342;2023-03-01T08:03:33;5;5;
61592;PMS5003;47485;51.378;-1.342;2023-03-01T08:06:01;8;7;
61592;PMS5003;47485;51.378;-1.342;2023-03-01T08:08:29;8;4;
61592;PMS5003;47485;51.378;-1.342;2023-03-01T08:10:56;6;5;
61592;PMS5003;47485;51.378;-1.342;2023-03-01T08:13:24;3;3;
61592;PMS5003;47485;51.378;-1.342;2023-03-01T08:15:53;7;5;
61592;PMS5003;47485;51.378;-1.342;2023-03-01T08:18:20;5;5;
61592;PMS5003;47485;51.378;-1.342;2023-03-01T08:20:47;10;7;
61592;PMS5003;47485;51.378;-1.342;2023-03-01T08:23:14;5;5;
61592;PMS5003;47485;51.378;-1.342;2023-03-01T08:25:41;7;6;
61592;PMS5003;47485;51.378;-1.342;2023-03-01T08:28:07;5;4;
61592;PMS5003;47485;51.378;-1.342;2023-03-01T08:30:34;6;5;
61592;PMS5003;47485;51.378;-1.342;2023-03-01T08:33:01;2;2;
61592;PMS5003;47485;51.378;-1.342;2023-03-01T08:35:28;4;3;
61592;PMS5003;47485;51.378;-1.342;2023-03-01T08:37:54;2;2;
61592;PMS5003;47485;51.378;-1.342;2023-03-01T08:40:21;3;3;
61592;PMS5003;47485;51.378;-1.342;2023-03-01T08:42:48;3;3;
61592;PMS5003;47485;51.378;-1.342;2023-03-01T08:45:15;4;3;
61592;PMS5003;47485;51.378;-1.342;2023-03-01T08:47:42;2;2;
61592;PMS5003;47485;51.378;-1.342;2023-03-01T08:50:09;3;3;
61592;PMS5003;47485;51.378;-1.342;2023-03-01T08:52:36;3;3;
61592;PMS5003;47485;51.378;-1.342;2023-03-01T08:55:04;1;1;
61592;PMS5003;47485;51.378;-1.342;2023-03-01T08:57:31;4;2;
61592;PMS5003;47485;51.378;-1.342;2023-03-01T08:59:58;3;3;
61592;PMS5003;47485;51.378;-1.342;2023-03-01T09:02:25;2;2;
61592;PMS5003;47485;51.378;-1.342;2023-03-01T09:04:52;3;3;
61592;PMS5003;47485;51.378;-1.342;2023-03-01T09:07:19;6;3;
61592;PMS5003;47485;51.378;-1.342;2023-03-01T09:09:46;3;2;
61592;PMS5003;47485;51.378;-1.342;2023-03-01T09:12:12;2;2;
61592;PMS5003;47485;51.378;-1.342;2023-03-01T09:14:39;3;2;
61592;PMS5003;47485;51.378;-1.342;2023-03-01T09:17:06;2;2;
61592;PMS5003;47485;51.378;-1.342;2023-03-01T09:19:33;1;1;
61592;PMS5003;47485;51.378;-1.342;2023-03-01T09:22:00;3;3;
61592;PMS5003;47485;51.378;-1.342;2023-03-01T09:24:27;7;4;
61592;PMS5003;47485;51.378;-1.342;2023-03-01T09:26:54;3;3;
61592;PMS5003;47485;51.378;-1.342;2023-03-01T09:29:21;1;1;
61592;PMS5003;47485;51.378;-1.342;2023-03-01T09:31:48;2;2;
61592;PMS5003;47485;51.378;-1.342;2023-03-01T09:34:15;2;2;
61592;PMS5003;47485;51.378;-1.342;2023-03-01T09:36:42;2;2;
61592;PMS5003;47485;51.378;-1.342;2023-03-01T09:39:08;2;0;
61592;PMS5003;47485;51.378;-1.342;2023-03-01T09:41:41;1;1;
61592;PMS5003;47485;51.378;-1.342;2023-03-01T09:44:15;3;1;
61592;PMS5003;47485;51.378;-1.342;2023-03-01T09:46:50;3;3;
61592;PMS5003;47485;51.378;-1.342;2023-03-01T09:49:19;2;1;
61592;PMS5003;47485;51.378;-1.342;2023-03-01T09:51:53;3;3;
61592;PMS5003;47485;51.378;-1.342;2023-03-01T09:54:23;4;4;
61592;PMS5003;47485;51.378;-1.342;2023-03-01T09:56:54;3;3;
61592;PMS5003;47485;51.378;-1.342;2023-03-01T09:59:31;7;4;
61592;PMS5003;47485;51.378;-1.342;2023-03-01T10:02:14;6;5;
61592;PMS5003;47485;51.378;-1.342;2023-03-01T10:04:51;3;1;
61592;PMS5003;47485;51.378;-1.342;2023-03-01T10:07:25;6;4;
61592;PMS5003;47485;51.378;-1.342;2023-03-01T10:09:58;4;4;
61592;PMS5003;47485;51.378;-1.342;2023-03-01T10:12:26;4;3;
61592;PMS5003;47485;51.378;-1.342;2023-03-01T10:15:00;3;3;
61592;PMS5003;47485;51.378;-1.342;2023-03-01T10:17:33;4;3;
61592;PMS5003;47485;51.378;-1.342;2023-03-01T10:20:20;3;3;
61592;PMS5003;47485;51.378;-1.342;2023-03-01T10:22:49;3;3;
61592;PMS5003;47485;51.378;-1.342;2023-03-01T10:25:21;4;4;
61592;PMS5003;47485;51.378;-1.342;2023-03-01T10:28:00;4;4;
61592;PMS5003;47485;51.378;-1.342;2023-03-01T10:30:33;3;2;
61592;PMS5003;47485;51.378;-1.342;2023-03-01T10:33:03;3;3;
61592;PMS5003;47485;51.378;-1.342;2023-03-01T10:35:35;2;2;
61592;PMS5003;47485;51.378;-1.342;2023-03-01T10:38:03;1;1;
61592;PMS5003;47485;51.378;-1.342;2023-03-01T10:40:33;4;3;
61592;PMS5003;47485;51.378;-1.342;2023-03-01T10:43:02;4;4;
61592;PMS5003;47485;51.378;-1.342;2023-03-01T10:45:34;0;0;
61592;PMS5003;47485;51.378;-1.342;2023-03-01T10:48:03;5;3;
61592;PMS5003;47485;51.378;-1.342;2023-03-01T10:50:32;3;2;
61592;PMS5003;47485;51.378;-1.342;2023-03-01T10:52:59;5;3;
61592;PMS5003;47485;51.378;-1.342;2023-03-01T10:55:31;3;3;
61592;PMS5003;47485;51.378;-1.342;2023-03-01T10:58:15;7;5;
61592;PMS5003;47485;51.378;-1.342;2023-03-01T11:00:46;8;7;
61592;PMS5003;47485;51.378;-1.342;2023-03-01T11:03:14;3;3;
61592;PMS5003;47485;51.378;-1.342;2023-03-01T11:05:51;3;3;
61592;PMS5003;47485;51.378;-1.342;2023-03-01T11:08:30;2;2;
61592;PMS5003;47485;51.378;-1.342;2023-03-01T11:11:04;5;3;
61592;PMS5003;47485;51.378;-1.342;2023-03-01T11:13:33;6;3;
61592;PMS5003;47485;51.378;-1.342;2023-03-01T11:16:03;4;3;
61592;PMS5003;47485;51.378;-1.342;2023-03-01T11:18:33;3;3;
61592;PMS5003;47485;51.378;-1.342;2023-03-01T11:21:00;4;3;
61592;PMS5003;47485;51.378;-1.342;2023-03-01T11:23:30;5;4;
61592;PMS5003;47485;51.378;-1.342;2023-03-01T11:25:59;5;3;
61592;PMS5003;47485;51.378;-1.342;2023-03-01T11:28:29;3;3;
61592;PMS5003;47485;51.378;-1.342;2023-03-01T11:30:57;5;5;
61592;PMS5003;47485;51.378;-1.342;2023-03-01T11:33:33;3;2;
61592;PMS5003;47485;51.378;-1.342;2023-03-01T11:36:06;3;3;
61592;PMS5003;47485;51.378;-1.342;2023-03-01T11:38:42;6;5;
61592;PMS5003;47485;51.378;-1.342;2023-03-01T11:41:12;7;5;
61592;PMS5003;47485;51.378;-1.342;2023-03-01T11:43:44;5;3;
61592;PMS5003;47485;51.378;-1.342;2023-03-01T11:46:26;5;4;
61592;PMS5003;47485;51.378;-1.342;2023-03-01T11:49:05;7;5;
61592;PMS5003;47485;51.378;-1.342;2023-03-01T11:51:45;7;5;
61592;PMS5003;47485;51.378;-1.342;2023-03-01T11:54:26;4;4;
61592;PMS5003;47485;51.378;-1.342;2023-03-01T11:57:04;4;4;
61592;PMS5003;47485;51.378;-1.342;2023-03-01T11:59:45;5;5;
61592;PMS5003;47485;51.378;-1.342;2023-03-01T12:02:27;6;5;
61592;PMS5003;47485;51.378;-1.342;2023-03-01T12:05:36;9;7;
61592;PMS5003;47485;51.378;-1.342;2023-03-01T12:08:16;9;8;
61592;PMS5003;47485;51.378;-1.342;2023-03-01T12:10:48;6;6;
61592;PMS5003;47485;51.378;-1.342;2023-03-01T12:13:29;5;4;
61592;PMS5003;47485;51.378;-1.342;2023-03-01T12:16:15;6;5;
61592;PMS5003;47485;51.378;-1.342;2023-03-01T12:18:56;6;5;
61592;PMS5003;47485;51.378;-1.342;2023-03-01T12:21:36;4;4;
61592;PMS5003;47485;51.378;-1.342;2023-03-01T12:24:19;5;5;
61592;PMS5003;47485;51.378;-1.342;2023-03-01T12:27:05;5;5;
61592;PMS5003;47485;51.378;-1.342;2023-03-01T12:29:42;4;4;
61592;PMS5003;47485;51.378;-1.342;2023-03-01T12:32:21;7;5;
61592;PMS5003;47485;51.378;-1.342;2023-03-01T12:35:08;2;2;
61592;PMS5003;47485;51.378;-1.342;2023-03-01T12:37:51;4;2;
61592;PMS5003;47485;51.378;-1.342;2023-03-01T12:40:30;2;2;
61592;PMS5003;47485;51.378;-1.342;2023-03-01T12:43:28;4;4;
61592;PMS5003;47485;51.378;-1.342;2023-03-01T12:46:12;4;3;
61592;PMS5003;47485;51.378;-1.342;2023-03-01T12:48:50;4;2;
61592;PMS5003;47485;51.378;-1.342;2023-03-01T12:51:30;3;3;
61592;PMS5003;47485;51.378;-1.342;2023-03-01T12:53:59;2;2;
61592;PMS5003;47485;51.378;-1.342;2023-03-01T12:56:31;4;4;
61592;PMS5003;47485;51.378;-1.342;2023-03-01T12:59:03;4;3;
61592;PMS5003;47485;51.378;-1.342;2023-03-01T13:01:41;1;1;
61592;PMS5003;47485;51.378;-1.342;2023-03-01T13:04:20;1;1;
61592;PMS5003;47485;51.378;-1.342;2023-03-01T13:07:02;2;2;
61592;PMS5003;47485;51.378;-1.342;2023-03-01T13:09:40;3;2;
61592;PMS5003;47485;51.378;-1.342;2023-03-01T13:13:21;2;2;
61592;PMS5003;47485;51.378;-1.342;2023-03-01T13:15:48;3;3;
61592;PMS5003;47485;51.378;-1.342;2023-03-01T13:18:33;3;2;
61592;PMS5003;47485;51.378;-1.342;2023-03-01T13:21:02;3;3;
61592;PMS5003;47485;51.378;-1.342;2023-03-01T13:23:31;5;2;
61592;PMS5003;47485;51.378;-1.342;2023-03-01T13:26:03;3;3;
61592;PMS5003;47485;51.378;-1.342;2023-03-01T13:28:38;4;4;
61592;PMS5003;47485;51.378;-1.342;2023-03-01T13:31:06;1;1;
61592;PMS5003;47485;51.378;-1.342;2023-03-01T13:33:39;2;2;
61592;PMS5003;47485;51.378;-1.342;2023-03-01T13:36:09;1;1;
61592;PMS5003;47485;51.378;-1.342;2023-03-01T13:38:39;3;3;
61592;PMS5003;47485;51.378;-1.342;2023-03-01T13:41:11;2;2;
61592;PMS5003;47485;51.378;-1.342;2023-03-01T13:43:40;1;1;
61592;PMS5003;47485;51.378;-1.342;2023-03-01T13:46:10;3;3;
61592;PMS5003;47485;51.378;-1.342;2023-03-01T13:48:42;4;2;
61592;PMS5003;47485;51.378;-1.342;2023-03-01T13:51:11;0;0;
61592;PMS5003;47485;51.378;-1.342;2023-03-01T13:53:39;2;1;
61592;PMS5003;47485;51.378;-1.342;2023-03-01T13:56:09;2;0;
61592;PMS5003;47485;51.378;-1.342;2023-03-01T13:58:48;2;2;
61592;PMS5003;47485;51.378;-1.342;2023-03-01T14:01:24;2;2;
61592;PMS5003;47485;51.378;-1.342;2023-03-01T14:03:53;2;2;
61592;PMS5003;47485;51.378;-1.342;2023-03-01T14:06:21;1;0;
61592;PMS5003;47485;51.378;-1.342;2023-03-01T14:08:49;1;0;
61592;PMS5003;47485;51.378;-1.342;2023-03-01T14:11:30;3;2;
61592;PMS5003;47485;51.378;-1.342;2023-03-01T14:14:16;3;1;
61592;PMS5003;47485;51.378;-1.342;2023-03-01T14:16:59;4;2;
61592;PMS5003;47485;51.378;-1.342;2023-03-01T14:19:35;4;4;
61592;PMS5003;47485;51.378;-1.342;2023-03-01T14:22:04;2;2;
61592;PMS5003;47485;51.378;-1.342;2023-03-01T14:24:44;3;1;
61592;PMS5003;47485;51.378;-1.342;2023-03-01T14:27:19;2;2;
61592;PMS5003;47485;51.378;-1.342;2023-03-01T14:29:53;4;3;
61592;PMS5003;47485;51.378;-1.342;2023-03-01T14:32:24;2;1;
61592;PMS5003;47485;51.378;-1.342;2023-03-01T14:34:52;3;3;
61592;PMS5003;47485;51.378;-1.342;2023-03-01T14:37:21;2;2;
61592;PMS5003;47485;51.378;-1.342;2023-03-01T14:39:51;1;1;
61592;PMS5003;47485;51.378;-1.342;2023-03-01T14:42:21;2;2;
61592;PMS5003;47485;51.378;-1.342;2023-03-01T14:44:50;3;2;
61592;PMS5003;47485;51.378;-1.342;2023-03-01T14:47:22;3;3;
61592;PMS5003;47485;51.378;-1.342;2023-03-01T14:49:55;3;3;
61592;PMS5003;47485;51.378;-1.342;2023-03-01T14:52:25;3;3;
61592;PMS5003;47485;51.378;-1.342;2023-03-01T14:55:00;3;1;
61592;PMS5003;47485;51.378;-1.342;2023-03-01T14:57:30;2;2;
61592;PMS5003;47485;51.378;-1.342;2023-03-01T14:59:57;2;2;
61592;PMS5003;47485;51.378;-1.342;2023-03-01T15:02:27;2;2;
61592;PMS5003;47485;51.378;-1.342;2023-03-01T15:04:57;2;2;
61592;PMS5003;47485;51.378;-1.342;2023-03-01T15:07:29;2;2;
61592;PMS5003;47485;51.378;-1.342;2023-03-01T15:09:57;1;1;
61592;PMS5003;47485;51.378;-1.342;2023-03-01T15:12:33;0;0;
61592;PMS5003;47485;51.378;-1.342;2023-03-01T15:15:18;0;0;
61592;PMS5003;47485;51.378;-1.342;2023-03-01T15:17:50;0;0;
61592;PMS5003;47485;51.378;-1.342;2023-03-01T15:20:19;0;0;
61592;PMS5003;47485;51.378;-1.342;2023-03-01T15:22:47;2;1;
61592;PMS5003;47485;51.378;-1.342;2023-03-01T15:25:14;0;0;
61592;PMS5003;47485;51.378;-1.342;2023-03-01T15:27:45;1;0;
61592;PMS5003;47485;51.378;-1.342;2023-03-01T15:30:13;0;0;
61592;PMS5003;47485;51.378;-1.342;2023-03-01T15:32:45;0;0;
61592;PMS5003;47485;51.378;-1.342;2023-03-01T15:35:44;1;1;
61592;PMS5003;47485;51.378;-1.342;2023-03-01T15:38:29;2;2;
61592;PMS5003;47485;51.378;-1.342;2023-03-01T15:40:59;1;1;
61592;PMS5003;47485;51.378;-1.342;2023-03-01T15:43:45;4;2;
61592;PMS5003;47485;51.378;-1.342;2023-03-01T15:46:15;2;2;
61592;PMS5003;47485;51.378;-1.342;2023-03-01T15:48:44;1;1;
61592;PMS5003;47485;51.378;-1.342;2023-03-01T15:51:13;1;1;
61592;PMS5003;47485;51.378;-1.342;2023-03-01T15:53:40;2;2;
61592;PMS5003;47485;51.378;-1.342;2023-03-01T15:56:08;0;0;
61592;PMS5003;47485;51.378;-1.342;2023-03-01T15:58:35;1;1;
61592;PMS5003;47485;51.378;-1.342;2023-03-01T16:01:01;2;2;
61592;PMS5003;47485;51.378;-1.342;2023-03-01T16:03:28;0;0;
61592;PMS5003;47485;51.378;-1.342;2023-03-01T16:05:55;0;0;
61592;PMS5003;47485;51.378;-1.342;2023-03-01T16:08:22;3;2;
61592;PMS5003;47485;51.378;-1.342;2023-03-01T16:10:48;1;1;
61592;PMS5003;47485;51.378;-1.342;2023-03-01T16:13:16;1;1;
61592;PMS5003;47485;51.378;-1.342;2023-03-01T16:15:43;4;1;
61592;PMS5003;47485;51.378;-1.342;2023-03-01T16:18:10;3;3;
61592;PMS5003;47485;51.378;-1.342;2023-03-01T16:20:37;2;2;
61592;PMS5003;47485;51.378;-1.342;2023-03-01T16:23:07;2;1;
61592;PMS5003;47485;51.378;-1.342;2023-03-01T16:25:36;2;2;
61592;PMS5003;47485;51.378;-1.342;2023-03-01T16:28:03;1;1;
61592;PMS5003;47485;51.378;-1.342;2023-03-01T16:30:30;3;1;
61592;PMS5003;47485;51.378;-1.342;2023-03-01T16:32:57;5;2;
61592;PMS5003;47485;51.378;-1.342;2023-03-01T16:35:23;2;2;
61592;PMS5003;47485;51.378;-1.342;2023-03-01T16:37:51;1;1;
61592;PMS5003;47485;51.378;-1.342;2023-03-01T16:40:19;2;2;
61592;PMS5003;47485;51.378;-1.342;2023-03-01T16:42:47;3;3;
61592;PMS5003;47485;51.378;-1.342;2023-03-01T16:45:14;2;1;
61592;PMS5003;47485;51.378;-1.342;2023-03-01T16:47:41;8;6;
61592;PMS5003;47485;51.378;-1.342;2023-03-01T16:50:08;5;4;
61592;PMS5003;47485;51.378;-1.342;2023-03-01T16:52:36;3;3;
61592;PMS5003;47485;51.378;-1.342;2023-03-01T16:55:04;2;2;